Nearby METAR Reports

 

LIEA - Alghero, Italia
Updated: 22/10/2021 13:50
Clear
Clear
 Wind from N
Wind: N 11 km/h
Temperature: 23°C
Dew Point: 12°C
Humidity: 50%
Barometer: 1016 hPa
Summary: Clear
Visibility: greater than 10 km
2021/10/22 11:50 LIEA 221150Z 35006KT 290V030 CAVOK 23/12 Q1016
LIEO - Olbia, Italia
Updated: 22/10/2021 13:50
Clear
Clear
 Wind from W
Wind: W 15 km/h
Temperature: 26°C
Dew Point: 10°C
Humidity: 37%
Barometer: 1015 hPa
Summary: Clear
Visibility: greater than 10 km
2021/10/22 11:50 LIEO 221150Z 28008KT 250V320 CAVOK 26/10 Q1015
 
LIEE - Cagliari, Italia
Updated: 22/10/2021 13:50
Clear
Clear
 Wind from W
Wind: W 9 km/h
Temperature: 25°C
Dew Point: 10°C
Humidity: 39%
Barometer: 1015 hPa
Summary: Clear
Visibility: greater than 10 km
2021/10/22 11:50 LIEE 221150Z 26005KT 230V340 CAVOK 25/10 Q1015